Time;durP1;ratioP1;P1;durP2;ratioP2;P2;SDS_P1;SDS_P2;PMS_P1;PMS_P2;Temp;Humidity;BMP_temperature;BMP_pressure;BME280_temperature;BME280_humidity;BME280_pressure;Samples;Min_cycle;Max_cycle;Signal;HPM_P1;HPM_P2
2022/07/11 00:02:15;;;;;;;4.50;1.60;;;16.70;99.90;;;;;;5155565;27;20074;-80
2022/07/11 00:04:42;;;;;;;5.03;1.50;;;16.80;99.90;;;;;;5155544;27;20479;-81
2022/07/11 00:07:08;;;;;;;;;;;16.40;99.90;;;;;;5155932;27;20039;-80
2022/07/11 00:09:34;;;;;;;4.90;1.88;;;16.40;99.90;;;;;;5155425;27;19919;-80
2022/07/11 00:12:00;;;;;;;4.00;1.60;;;17.30;99.90;;;;;;5155530;27;20557;-77
2022/07/11 00:14:27;;;;;;;7.15;1.95;;;16.30;99.90;;;;;;5155451;27;20043;-81
2022/07/11 00:16:53;;;;;;;7.07;1.90;;;16.90;99.90;;;;;;5155471;27;20038;-80
2022/07/11 00:19:22;;;;;;;7.20;1.93;;;16.70;99.90;;;;;;5155406;27;20051;-79
2022/07/11 00:21:52;;;;;;;4.55;2.00;;;16.90;99.90;;;;;;5158336;27;20030;-80
2022/07/11 00:24:19;;;;;;;4.57;1.70;;;17.20;99.90;;;;;;5162257;27;20039;-80
2022/07/11 00:26:46;;;;;;;6.32;1.70;;;16.80;99.90;;;;;;5162168;27;20038;-79
2022/07/11 00:29:12;;;;;;;3.38;1.58;;;16.40;99.90;;;;;;5162269;27;20102;-80
2022/07/11 00:31:38;;;;;;;6.40;1.80;;;16.20;99.90;;;;;;5162188;27;20125;-80
2022/07/11 00:34:04;;;;;;;4.20;1.60;;;16.30;99.90;;;;;;5162241;27;20042;-80
2022/07/11 00:36:31;;;;;;;8.00;2.10;;;17.10;99.90;;;;;;5162127;27;20495;-80
2022/07/11 00:38:57;;;;;;;2.90;1.60;;;16.80;99.90;;;;;;5143924;27;20075;-78
2022/07/11 00:41:22;;;;;;;4.77;1.80;;;17.00;99.90;;;;;;5162028;27;20578;-79
2022/07/11 00:43:59;;;;;;;6.07;2.47;;;16.30;99.90;;;;;;5162087;27;20506;-79
2022/07/11 00:46:26;;;;;;;5.53;2.20;;;16.20;99.90;;;;;;5162616;27;20047;-80
2022/07/11 00:48:52;;;;;;;3.03;1.67;;;16.60;99.90;;;;;;5143523;27;20047;-79
2022/07/11 00:51:22;;;;;;;4.45;1.90;;;16.60;99.90;;;;;;5162065;27;20046;-79
2022/07/11 00:53:51;;;;;;;3.58;1.65;;;16.20;99.90;;;;;;5143563;27;20075;-79
2022/07/11 00:56:19;;;;;;;6.65;1.90;;;16.60;99.90;;;;;;5161966;27;20034;-79
2022/07/11 00:58:44;;;;;;;4.72;2.05;;;16.50;99.90;;;;;;5162006;27;20478;-79
2022/07/11 01:01:11;;;;;;;5.07;1.60;;;16.20;99.90;;;;;;5162013;27;20084;-79
2022/07/11 01:03:39;;;;;;;;;;;16.30;99.90;;;;;;5162376;27;20086;-79
2022/07/11 01:06:06;;;;;;;3.30;1.70;;;16.10;99.90;;;;;;5161901;27;19963;-80
2022/07/11 01:08:32;;;;;;;4.22;2.03;;;16.80;99.90;;;;;;5161470;27;20079;-79
2022/07/11 01:11:02;;;;;;;5.82;1.83;;;16.20;99.90;;;;;;5161693;27;20050;-79
2022/07/11 01:13:28;;;;;;;4.72;1.98;;;16.50;99.90;;;;;;5144149;27;20039;-80
2022/07/11 01:16:13;;;;;;;5.17;2.20;;;16.40;99.90;;;;;;5161410;27;20397;-79
2022/07/11 01:18:44;;;;;;;5.97;1.92;;;17.10;99.90;;;;;;5161803;27;20047;-80
2022/07/11 01:21:19;;;;;;;5.10;1.88;;;16.30;99.90;;;;;;5161732;27;20076;-79
2022/07/11 01:23:49;;;;;;;4.22;2.00;;;16.50;99.90;;;;;;5161874;27;20054;-78
2022/07/11 01:26:16;;;;;;;4.47;1.90;;;16.30;99.90;;;;;;5161751;27;20058;-79
2022/07/11 01:28:42;;;;;;;6.78;2.10;;;16.20;99.90;;;;;;5161599;27;20121;-80
2022/07/11 01:31:07;;;;;;;5.70;2.23;;;17.00;99.90;;;;;;5143485;27;20607;-80
2022/07/11 01:33:33;;;;;;;5.40;1.80;;;16.10;99.90;;;;;;5140354;27;20069;-79
2022/07/11 01:36:02;;;;;;;4.67;1.83;;;16.70;99.90;;;;;;5158389;27;20038;-79
2022/07/11 01:38:28;;;;;;;6.90;1.90;;;16.50;99.90;;;;;;5122880;27;20057;-79
2022/07/11 01:40:54;;;;;;;5.80;2.13;;;17.20;99.90;;;;;;5158295;27;20043;-79
2022/07/11 01:43:19;;;;;;;4.87;2.10;;;16.80;99.90;;;;;;5139812;27;20155;-78
2022/07/11 01:45:45;;;;;;;5.07;2.00;;;17.20;99.90;;;;;;5158218;27;20125;-79
2022/07/11 01:48:10;;;;;;;5.83;1.83;;;16.90;99.90;;;;;;5158026;27;20080;-79
2022/07/11 01:50:36;;;;;;;4.60;2.10;;;16.50;99.90;;;;;;5158104;27;20075;-78
2022/07/11 01:53:02;;;;;;;3.60;1.83;;;16.00;99.90;;;;;;5158118;27;20101;-79
2022/07/11 01:55:28;;;;;;;5.37;1.90;;;16.40;99.90;;;;;;5157708;27;20382;-78
2022/07/11 01:57:53;;;;;;;4.73;1.90;;;16.50;99.90;;;;;;5158018;27;20088;-79
2022/07/11 02:00:19;;;;;;;4.40;2.27;;;16.60;99.90;;;;;;5157877;27;20437;-79
2022/07/11 02:02:45;;;;;;;6.10;2.70;;;16.40;99.90;;;;;;5157699;27;20077;-79
2022/07/11 02:05:10;;;;;;;5.20;2.23;;;16.40;99.90;;;;;;5157730;27;20062;-79
2022/07/11 02:10:20;;;;;;;4.72;2.53;;;17.10;99.90;;;;;;5157618;27;20055;-79
2022/07/11 02:12:46;;;;;;;7.97;2.37;;;16.50;99.90;;;;;;5157949;27;20051;-79
2022/07/11 02:15:11;;;;;;;4.83;1.90;;;16.40;99.90;;;;;;5157565;27;20483;-79
2022/07/11 02:17:37;;;;;;;7.53;2.53;;;16.90;99.90;;;;;;5157514;27;20038;-78
2022/07/11 02:20:03;;;;;;;5.57;2.27;;;16.20;99.90;;;;;;5157713;27;20050;-79
2022/07/11 02:22:29;;;;;;;7.18;2.47;;;16.30;99.90;;;;;;5157802;27;20046;-79
2022/07/11 02:24:55;;;;;;;7.55;2.33;;;16.50;99.90;;;;;;5157470;27;20136;-78
2022/07/11 02:27:21;;;;;;;6.37;2.10;;;16.50;99.90;;;;;;5157306;27;20043;-79
2022/07/11 02:29:47;;;;;;;4.63;2.07;;;16.80;99.90;;;;;;5157139;27;20045;-79
2022/07/11 02:32:12;;;;;;;4.87;2.23;;;16.30;99.90;;;;;;5156973;27;20114;-78
2022/07/11 02:34:38;;;;;;;5.63;2.30;;;16.50;99.90;;;;;;5157006;27;20043;-78
2022/07/11 02:37:05;;;;;;;6.10;2.30;;;15.90;99.90;;;;;;5157168;27;20038;-79
2022/07/11 02:39:31;;;;;;;4.38;2.00;;;16.10;99.90;;;;;;5157474;27;20034;-78
2022/07/11 02:41:56;;;;;;;5.97;2.40;;;16.40;99.90;;;;;;5157157;27;20046;-78
2022/07/11 02:44:22;;;;;;;4.30;2.03;;;16.20;99.90;;;;;;5156906;27;20211;-80
2022/07/11 02:46:47;;;;;;;5.40;1.93;;;16.00;99.90;;;;;;5157043;27;20047;-78
2022/07/11 02:49:13;;;;;;;5.50;2.20;;;16.60;99.90;;;;;;5156813;27;20043;-78
2022/07/11 02:51:39;;;;;;;3.93;1.80;;;16.10;99.90;;;;;;5156621;27;20045;-79
2022/07/11 02:54:04;;;;;;;4.90;2.13;;;16.80;99.90;;;;;;5157236;27;20043;-78
2022/07/11 02:56:30;;;;;;;3.30;1.63;;;16.10;99.90;;;;;;5156871;27;20043;-78
2022/07/11 02:58:55;;;;;;;2.97;1.50;;;15.90;99.90;;;;;;5156845;27;20045;-78
2022/07/11 03:01:21;;;;;;;6.23;2.20;;;15.60;99.90;;;;;;5156391;27;20490;-78
2022/07/11 03:03:47;;;;;;;3.10;1.50;;;15.90;99.90;;;;;;5156399;27;20050;-79
2022/07/11 03:06:12;;;;;;;4.23;1.67;;;15.90;99.90;;;;;;5156650;27;20059;-78
2022/07/11 03:08:39;;;;;;;3.10;1.67;;;15.90;99.90;;;;;;5156494;27;20035;-78
2022/07/11 03:11:05;;;;;;;;;;;15.90;99.90;;;;;;5157076;27;20432;-78
2022/07/11 03:13:31;;;;;;;3.20;1.60;;;15.90;99.90;;;;;;5156217;27;19919;-78
2022/07/11 03:15:57;;;;;;;3.73;1.70;;;16.00;99.90;;;;;;5156501;27;20049;-78
2022/07/11 03:18:22;;;;;;;3.23;1.70;;;15.60;99.90;;;;;;5156821;27;20043;-78
2022/07/11 03:20:48;;;;;;;3.95;1.67;;;16.60;99.90;;;;;;5156349;27;20466;-78
2022/07/11 03:23:13;;;;;;;4.85;2.10;;;15.90;99.90;;;;;;5156377;27;20367;-78
2022/07/11 03:25:39;;;;;;;3.10;1.70;;;16.30;99.90;;;;;;5156280;27;20053;-78
2022/07/11 03:28:05;;;;;;;2.63;1.70;;;15.90;99.90;;;;;;5137812;27;20039;-78
2022/07/11 03:30:31;;;;;;;3.40;1.67;;;16.00;99.90;;;;;;5156125;27;20099;-78
2022/07/11 03:32:56;;;;;;;3.53;2.10;;;15.50;99.90;;;;;;5155891;27;20436;-77
2022/07/11 03:35:40;;;;;;;2.30;1.93;;;15.80;99.90;;;;;;5156063;27;20043;-78
2022/07/11 03:38:06;;;;;;;2.80;2.05;;;15.90;99.90;;;;;;5156020;27;20042;-79
2022/07/11 03:40:32;;;;;;;2.70;1.87;;;16.10;99.90;;;;;;5156021;27;20042;-78
2022/07/11 03:42:58;;;;;;;3.00;1.57;;;15.80;99.90;;;;;;5156050;27;20043;-78
2022/07/11 03:45:23;;;;;;;3.40;1.77;;;15.90;99.90;;;;;;5155679;27;20513;-78
2022/07/11 03:47:49;;;;;;;2.50;2.00;;;15.90;99.90;;;;;;5156457;27;20042;-78
2022/07/11 03:50:16;;;;;;;3.17;1.88;;;15.30;99.90;;;;;;5156229;27;20481;-78
2022/07/11 03:52:42;;;;;;;;;;;15.90;99.90;;;;;;5138033;27;20491;-78
2022/07/11 03:55:08;;;;;;;3.05;1.85;;;15.50;99.90;;;;;;5155759;27;19958;-78
2022/07/11 03:57:34;;;;;;;3.20;2.10;;;15.80;99.90;;;;;;5155200;27;20418;-78
2022/07/11 04:00:01;;;;;;;2.38;1.73;;;15.50;99.90;;;;;;5155653;27;20272;-78
2022/07/11 04:02:27;;;;;;;2.60;1.92;;;16.10;99.90;;;;;;5156131;27;20043;-78
2022/07/11 04:04:53;;;;;;;3.35;2.20;;;15.70;99.90;;;;;;5155639;27;20042;-78
2022/07/11 04:07:20;;;;;;;2.23;1.80;;;15.60;99.90;;;;;;5155824;27;20050;-79
2022/07/11 04:09:45;;;;;;;;;;;15.80;99.90;;;;;;5155640;27;20133;-79
2022/07/11 04:12:11;;;;;;;2.78;1.75;;;15.60;99.90;;;;;;5155465;27;19966;-78
2022/07/11 04:14:37;;;;;;;2.20;1.80;;;16.10;99.90;;;;;;5155402;27;20546;-79
2022/07/11 04:17:03;;;;;;;2.77;1.73;;;16.40;99.90;;;;;;5155561;27;20122;-78
2022/07/11 04:19:29;;;;;;;2.17;1.53;;;15.90;99.90;;;;;;5155399;27;20470;-78
2022/07/11 04:21:55;;;;;;;3.13;2.00;;;16.10;99.90;;;;;;5155640;27;20309;-78
2022/07/11 04:24:21;;;;;;;2.65;1.70;;;16.60;99.90;;;;;;5155382;27;20043;-79
2022/07/11 04:26:46;;;;;;;3.43;1.90;;;15.60;99.90;;;;;;5155483;27;20053;-78
2022/07/11 04:29:12;;;;;;;2.53;1.90;;;16.40;99.90;;;;;;5155222;27;20107;-79
2022/07/11 04:31:38;;;;;;;2.63;1.70;;;16.30;99.90;;;;;;5155358;27;20099;-78
2022/07/11 04:34:03;;;;;;;3.87;2.40;;;15.60;99.90;;;;;;5155227;27;20042;-79
2022/07/11 04:36:29;;;;;;;3.33;2.13;;;15.50;99.90;;;;;;5155762;27;20042;-79
2022/07/11 04:38:54;;;;;;;4.03;2.83;;;16.70;99.90;;;;;;5155525;27;20046;-81
2022/07/11 04:41:20;;;;;;;3.00;2.40;;;15.40;99.90;;;;;;5155266;27;20110;-81
2022/07/11 04:43:45;;;;;;;4.13;2.60;;;16.40;99.90;;;;;;5155162;27;20047;-80
2022/07/11 04:46:11;;;;;;;4.27;3.10;;;16.60;99.90;;;;;;5136989;27;20386;-79
2022/07/11 04:48:39;;;;;;;4.63;3.03;;;16.20;99.90;;;;;;5155490;27;20078;-79
2022/07/11 04:51:06;;;;;;;4.22;2.70;;;15.90;99.90;;;;;;5155518;27;20047;-79
2022/07/11 04:53:32;;;;;;;4.25;2.53;;;16.00;99.90;;;;;;5155132;27;20050;-79
2022/07/11 04:55:58;;;;;;;3.92;2.58;;;16.10;99.90;;;;;;5155074;27;20091;-80
2022/07/11 04:58:23;;;;;;;5.23;3.47;;;16.10;99.90;;;;;;5155085;27;20428;-78
2022/07/11 05:00:49;;;;;;;5.50;3.10;;;16.50;99.90;;;;;;5154992;27;20047;-80
2022/07/11 05:03:15;;;;;;;3.53;2.43;;;16.30;99.90;;;;;;5155040;27;20386;-79
2022/07/11 05:05:40;;;;;;;3.07;2.50;;;16.40;99.90;;;;;;5155073;27;20103;-81
2022/07/11 05:08:06;;;;;;;4.13;2.50;;;16.00;99.90;;;;;;5136688;27;20039;-79
2022/07/11 05:10:33;;;;;;;5.10;2.53;;;16.60;99.90;;;;;;5159175;27;20059;-79
2022/07/11 05:12:59;;;;;;;;;;;16.80;99.90;;;;;;5159268;27;20538;-79
2022/07/11 05:15:24;;;;;;;4.97;2.80;;;16.30;99.90;;;;;;5158753;27;19923;-79
2022/07/11 05:17:50;;;;;;;3.03;2.10;;;15.80;99.90;;;;;;5158767;27;20108;-79
2022/07/11 05:20:16;;;;;;;4.33;2.17;;;15.90;99.90;;;;;;5159143;27;20039;-79
2022/07/11 05:22:43;;;;;;;4.33;2.30;;;16.30;99.90;;;;;;5158697;27;20054;-79
2022/07/11 05:25:08;;;;;;;3.20;1.80;;;16.30;99.90;;;;;;5158669;27;20043;-81
2022/07/11 05:27:34;;;;;;;4.43;2.00;;;16.70;99.90;;;;;;5140272;27;20034;-78
2022/07/11 05:29:59;;;;;;;3.57;2.20;;;16.30;99.90;;;;;;5158479;27;20057;-78
2022/07/11 05:32:25;;;;;;;3.77;2.00;;;16.90;99.90;;;;;;5158532;27;20039;-79
2022/07/11 05:34:50;;;;;;;2.83;1.83;;;16.20;99.90;;;;;;5158813;27;20042;-79
2022/07/11 05:37:16;;;;;;;2.17;1.90;;;16.10;99.90;;;;;;5158285;27;20039;-79
2022/07/11 05:39:42;;;;;;;3.07;1.90;;;16.40;99.90;;;;;;5158605;27;20035;-77
2022/07/11 05:42:07;;;;;;;3.95;2.08;;;16.40;99.90;;;;;;5158361;27;20084;-79
2022/07/11 05:44:33;;;;;;;2.93;2.10;;;16.40;99.90;;;;;;5158289;27;20049;-79
2022/07/11 05:47:02;;;;;;;3.60;2.00;;;16.60;99.90;;;;;;5158280;27;20474;-78
2022/07/11 05:49:30;;;;;;;3.38;1.90;;;16.40;99.90;;;;;;5158279;27;20035;-79
2022/07/11 05:51:55;;;;;;;3.47;1.98;;;16.50;99.90;;;;;;5158233;27;20046;-79
2022/07/11 05:54:21;;;;;;;2.10;1.50;;;16.40;99.90;;;;;;5158048;27;20462;-78
2022/07/11 05:56:46;;;;;;;2.70;1.50;;;16.10;99.90;;;;;;5157879;27;20125;-79
2022/07/11 05:59:13;;;;;;;2.00;1.43;;;17.00;99.90;;;;;;5139701;27;20050;-79
2022/07/11 06:01:39;;;;;;;2.63;1.60;;;16.50;99.90;;;;;;5158087;27;20050;-79
2022/07/11 06:04:05;;;;;;;2.97;1.33;;;17.20;99.90;;;;;;5157824;27;20501;-79
2022/07/11 06:06:30;;;;;;;2.20;1.43;;;17.30;99.90;;;;;;5157789;27;20044;-82
2022/07/11 06:08:57;;;;;;;1.90;1.30;;;16.50;99.90;;;;;;5157353;27;20538;-81
2022/07/11 06:11:24;;;;;;;1.98;1.25;;;17.00;99.90;;;;;;5139106;27;20134;-80
2022/07/11 06:13:50;;;;;;;2.20;1.27;;;16.90;99.90;;;;;;5139408;27;20453;-78
2022/07/11 06:16:16;;;;;;;2.43;1.50;;;17.10;99.90;;;;;;5157660;27;20046;-78
2022/07/11 06:18:42;;;;;;;2.03;1.40;;;17.30;99.90;;;;;;5157362;27;20056;-80
2022/07/11 06:21:09;;;;;;;2.10;1.23;;;17.10;99.90;;;;;;5138857;27;20495;-82
2022/07/11 06:23:34;;;;;;;3.53;1.20;;;17.90;99.90;;;;;;5157546;27;20362;-80
2022/07/11 06:26:01;;;;;;;2.07;1.20;;;17.70;99.90;;;;;;5139055;27;20035;-81
2022/07/11 06:28:26;;;;;;;1.48;1.05;;;17.40;99.90;;;;;;5157230;27;20049;-81
2022/07/11 06:30:52;;;;;;;2.13;1.13;;;17.50;99.90;;;;;;5157355;27;20042;-81
2022/07/11 06:33:19;;;;;;;0.97;0.77;;;17.20;99.90;;;;;;5138729;27;20505;-81
2022/07/11 06:35:45;;;;;;;1.80;1.00;;;17.30;99.90;;;;;;5157217;27;20397;-81
2022/07/11 06:38:12;;;;;;;3.05;1.00;;;17.20;99.90;;;;;;5157231;27;20047;-81
2022/07/11 06:40:39;;;;;;;1.88;1.00;;;17.70;99.90;;;;;;5138882;27;20045;-80
2022/07/11 06:43:06;;;;;;;1.92;0.90;;;16.90;99.90;;;;;;5157023;27;20047;-81
2022/07/11 06:45:32;;;;;;;2.17;1.05;;;17.20;99.90;;;;;;5157285;27;20038;-80
2022/07/11 06:47:58;;;;;;;2.38;1.10;;;17.20;99.90;;;;;;5156941;27;20076;-81
2022/07/11 06:50:24;;;;;;;1.63;0.87;;;17.20;99.90;;;;;;5156857;27;20151;-80
2022/07/11 06:52:49;;;;;;;2.17;0.90;;;17.60;99.90;;;;;;5138862;27;20184;-79
2022/07/11 06:55:15;;;;;;;2.63;1.20;;;17.30;99.90;;;;;;5138646;27;20043;-81
2022/07/11 06:57:40;;;;;;;1.83;1.00;;;18.10;99.90;;;;;;5156748;27;20066;-80
2022/07/11 07:00:08;;;;;;;0.83;0.70;;;17.40;99.90;;;;;;5138574;27;20095;-80
2022/07/11 07:02:33;;;;;;;1.73;0.90;;;17.20;99.90;;;;;;5156715;27;20125;-80
2022/07/11 07:04:59;;;;;;;1.47;0.77;;;17.10;99.90;;;;;;5156976;27;20562;-81
2022/07/11 07:07:26;;;;;;;2.00;0.70;;;17.10;99.90;;;;;;5156481;27;20062;-82
2022/07/11 07:09:53;;;;;;;1.35;0.80;;;17.00;99.90;;;;;;5137941;27;20505;-80
2022/07/11 07:12:20;;;;;;;9.07;1.00;;;17.20;99.90;;;;;;5154979;27;20051;-77
2022/07/11 07:14:45;;;;;;;3.28;0.90;;;16.90;99.90;;;;;;5156748;27;20053;-76
2022/07/11 07:17:11;;;;;;;1.70;0.90;;;17.00;99.90;;;;;;5138025;27;20394;-76
2022/07/11 07:19:36;;;;;;;2.53;0.90;;;17.60;99.90;;;;;;5138028;27;20041;-78
2022/07/11 07:22:02;;;;;;;1.87;0.90;;;17.20;99.90;;;;;;5138070;27;20043;-79
2022/07/11 07:24:28;;;;;;;1.33;0.80;;;17.20;99.90;;;;;;5138151;27;20047;-78
2022/07/11 07:26:54;;;;;;;2.13;0.93;;;16.90;99.90;;;;;;5137663;27;20058;-79
2022/07/11 07:29:20;;;;;;;3.40;0.90;;;17.00;99.90;;;;;;5156041;27;20056;-78
2022/07/11 07:31:46;;;;;;;;;;;17.20;99.90;;;;;;5137175;27;20054;-79
2022/07/11 07:34:12;;;;;;;1.67;0.77;;;17.30;99.90;;;;;;5156003;27;19933;-80
2022/07/11 07:36:37;;;;;;;2.93;0.93;;;17.20;99.90;;;;;;5155800;27;20121;-77
2022/07/11 07:39:03;;;;;;;3.47;1.00;;;17.60;99.90;;;;;;5137338;27;20043;-78
2022/07/11 07:41:29;;;;;;;2.43;0.87;;;17.30;99.90;;;;;;5137086;27;20169;-77
2022/07/11 07:43:54;;;;;;;1.73;0.80;;;17.90;99.90;;;;;;5155486;27;20039;-79
2022/07/11 07:46:20;;;;;;;1.23;0.90;;;17.10;99.90;;;;;;5138249;27;20057;-78
2022/07/11 07:48:45;;;;;;;1.73;0.83;;;18.20;99.90;;;;;;5155728;27;20471;-79
2022/07/11 07:51:11;;;;;;;1.80;0.80;;;17.60;99.90;;;;;;5137498;27;20038;-78
2022/07/11 07:53:37;;;;;;;4.10;1.00;;;17.70;99.90;;;;;;5137442;27;20043;-79
2022/07/11 07:56:06;;;;;;;1.53;0.80;;;17.80;99.90;;;;;;5155792;27;20031;-79
2022/07/11 07:58:32;;;;;;;1.65;0.73;;;17.80;99.90;;;;;;5137327;27;20107;-78
2022/07/11 08:03:41;;;;;;;1.75;0.90;;;18.50;99.90;;;;;;5155874;27;20050;-80
2022/07/11 08:06:07;;;;;;;1.50;0.90;;;17.40;99.90;;;;;;5155634;27;20047;-79
2022/07/11 08:08:33;;;;;;;1.23;0.70;;;17.50;99.90;;;;;;5137136;27;20046;-77
2022/07/11 08:11:01;;;;;;;1.27;0.60;;;17.90;99.90;;;;;;5136280;27;20042;-79
2022/07/11 08:13:28;;;;;;;1.58;0.60;;;18.20;99.90;;;;;;5137093;27;20050;-78
2022/07/11 08:15:53;;;;;;;0.80;0.60;;;17.70;99.90;;;;;;5155345;27;20046;-80
2022/07/11 08:18:19;;;;;;;1.67;0.60;;;18.10;99.90;;;;;;5155446;27;20050;-79
2022/07/11 08:20:44;;;;;;;1.80;0.73;;;18.10;99.90;;;;;;5137019;27;20043;-80
2022/07/11 08:23:10;;;;;;;1.03;0.60;;;18.20;99.90;;;;;;5154933;27;20039;-78
2022/07/11 08:25:36;;;;;;;1.23;0.57;;;18.40;99.90;;;;;;5136801;27;20393;-78
2022/07/11 08:28:01;;;;;;;0.93;0.57;;;18.00;99.90;;;;;;5155126;27;20042;-88
2022/07/11 08:30:27;;;;;;;0.97;0.50;;;18.10;99.90;;;;;;5136346;27;20122;-79
2022/07/11 08:32:53;;;;;;;0.97;0.50;;;17.80;99.90;;;;;;5136428;27;20047;-78
2022/07/11 08:35:21;;;;;;;0.93;0.50;;;18.50;99.90;;;;;;5155632;27;20053;-90
2022/07/11 08:37:47;;;;;;;0.40;0.40;;;19.10;99.90;;;;;;5136587;27;20042;-90
2022/07/11 08:40:12;;;;;;;1.03;0.50;;;18.40;99.90;;;;;;5119101;27;20474;-86
2022/07/11 08:42:44;;;;;;;1.40;0.60;;;19.30;99.90;;;;;;5138284;27;20046;-84
2022/07/11 08:45:16;;;;;;;0.47;0.45;;;18.20;99.90;;;;;;5141335;27;20440;-92
2022/07/11 08:47:43;;;;;;;0.60;0.50;;;18.60;99.90;;;;;;5123641;27;20034;-81
2022/07/11 08:50:12;;;;;;;0.93;0.50;;;20.00;99.90;;;;;;5158896;27;20044;-79
2022/07/11 08:52:38;;;;;;;0.68;0.50;;;18.60;99.90;;;;;;5140196;27;20099;-77
2022/07/11 08:55:08;;;;;;;1.38;0.60;;;18.80;99.90;;;;;;5158889;27;20035;-77
2022/07/11 08:57:35;;;;;;;0.75;0.40;;;18.60;99.90;;;;;;5158940;27;20038;-76
2022/07/11 09:00:04;;;;;;;0.77;0.60;;;19.20;99.90;;;;;;5158770;27;20445;-77
2022/07/11 09:02:30;;;;;;;1.15;0.50;;;18.50;99.90;;;;;;5123593;27;20474;-73
2022/07/11 09:04:55;;;;;;;0.65;0.55;;;19.10;99.90;;;;;;5140708;27;20363;-77
2022/07/11 09:07:21;;;;;;;0.70;0.40;;;18.60;99.90;;;;;;5139784;27;20042;-78
2022/07/11 09:09:46;;;;;;;1.07;0.50;;;18.60;99.90;;;;;;5140023;27;20123;-76
2022/07/11 09:12:16;;;;;;;0.90;0.40;;;18.90;99.90;;;;;;5158782;27;20088;-78
2022/07/11 09:14:54;;;;;;;1.17;0.50;;;18.80;99.90;;;;;;5158701;27;20042;-88
2022/07/11 09:17:28;;;;;;;0.82;0.50;;;19.00;99.90;;;;;;5122999;27;20058;-75
2022/07/11 09:19:54;;;;;;;0.60;0.50;;;19.20;99.90;;;;;;5139778;27;20061;-78
2022/07/11 09:25:31;;;;;;;0.90;0.60;;;19.40;99.90;;;;;;5158347;27;20355;-76
2022/07/11 09:28:04;;;;;;;1.45;0.50;;;19.80;99.90;;;;;;5158394;27;20119;-77
2022/07/11 09:30:35;;;;;;;1.25;0.47;;;19.50;99.90;;;;;;5139702;27;20557;-79
2022/07/11 09:33:05;;;;;;;0.45;0.40;;;19.50;99.90;;;;;;5139902;27;20125;-78
2022/07/11 09:35:35;;;;;;;0.32;0.32;;;19.80;99.90;;;;;;5157554;27;20089;-78
2022/07/11 09:38:09;;;;;;;0.68;0.40;;;19.40;99.90;;;;;;5157255;27;20039;-79
2022/07/11 09:40:36;;;;;;;1.85;0.40;;;19.40;99.90;;;;;;5158408;27;20039;-80
2022/07/11 09:43:02;;;;;;;0.65;0.40;;;19.40;99.90;;;;;;5139788;27;20051;-79
2022/07/11 09:45:29;;;;;;;0.50;0.40;;;19.30;99.90;;;;;;5158248;27;20049;-78
2022/07/11 09:47:57;;;;;;;0.70;0.50;;;19.90;99.90;;;;;;5158089;27;20042;-78
2022/07/11 09:50:29;;;;;;;1.60;0.57;;;19.80;99.90;;;;;;5158124;27;20168;-79
2022/07/11 09:53:15;;;;;;;0.80;0.50;;;19.70;99.90;;;;;;5158150;27;20553;-79
2022/07/11 09:55:45;;;;;;;0.82;0.40;;;19.70;99.90;;;;;;5157174;27;20428;-79
2022/07/11 09:58:15;;;;;;;0.65;0.45;;;20.10;99.90;;;;;;5158035;27;20046;-79
2022/07/11 10:00:42;;;;;;;2.10;0.52;;;19.40;99.90;;;;;;5157961;27;20042;-79
2022/07/11 10:03:08;;;;;;;;;;;19.30;99.90;;;;;;5158274;27;20038;-79
2022/07/11 10:05:34;;;;;;;1.35;0.70;;;19.00;99.90;;;;;;5158025;27;19919;-79
2022/07/11 10:08:01;;;;;;;0.83;0.50;;;19.00;99.90;;;;;;5157743;27;20168;-79
2022/07/11 10:10:28;;;;;;;1.27;0.60;;;19.10;99.90;;;;;;5157484;27;20061;-79
2022/07/11 10:12:55;;;;;;;1.13;0.47;;;19.40;99.90;;;;;;5158148;27;20042;-79
2022/07/11 10:15:30;;;;;;;0.93;0.50;;;19.30;99.90;;;;;;5157963;27;20043;-79
2022/07/11 10:18:09;;;;;;;0.63;0.45;;;19.40;99.90;;;;;;5139442;27;20150;-79
2022/07/11 10:20:52;;;;;;;1.40;0.50;;;19.50;99.90;;;;;;5157576;27;20103;-79
2022/07/11 10:23:35;;;;;;;0.50;0.50;;;19.50;99.90;;;;;;5157517;27;20496;-79
2022/07/11 10:26:27;;;;;;;1.60;0.60;;;19.60;99.90;;;;;;5157738;27;20047;-79
2022/07/11 10:29:01;;;;;;;2.50;0.60;;;20.00;99.90;;;;;;5157362;27;20043;-79
2022/07/11 10:31:30;;;;;;;1.35;0.57;;;19.60;99.90;;;;;;5157386;27;20119;-79
2022/07/11 10:34:03;;;;;;;1.65;0.70;;;19.70;99.90;;;;;;5157856;27;20367;-79
2022/07/11 10:36:30;;;;;;;0.93;0.60;;;19.80;99.90;;;;;;5157214;27;20042;-79
2022/07/11 10:39:18;;;;;;;0.80;0.50;;;19.80;99.90;;;;;;5157216;27;20552;-79
2022/07/11 10:41:47;;;;;;;1.02;0.57;;;20.30;99.90;;;;;;5156813;27;20042;-79
2022/07/11 10:44:13;;;;;;;1.60;0.50;;;20.00;99.90;;;;;;5157464;27;20038;-79
2022/07/11 10:46:39;;;;;;;1.47;0.50;;;20.80;99.90;;;;;;5157748;27;20050;-79
2022/07/11 10:49:18;;;;;;;1.00;0.50;;;21.00;99.90;;;;;;5156926;27;20045;-79
2022/07/11 10:51:49;;;;;;;1.13;0.70;;;20.00;99.90;;;;;;5156947;27;20043;-79
2022/07/11 10:54:55;;;;;;;2.35;0.70;;;19.90;99.90;;;;;;5156509;27;20486;-79
2022/07/11 10:57:39;;;;;;;2.50;0.73;;;19.80;99.90;;;;;;5105962;27;20439;-79
2022/07/11 11:00:08;;;;;;;1.05;0.60;;;19.80;99.90;;;;;;5156802;27;20046;-78
2022/07/11 11:02:54;;;;;;;1.25;0.60;;;19.80;99.90;;;;;;5138686;27;20051;-78
2022/07/11 11:05:47;;;;;;;2.15;0.70;;;19.80;99.90;;;;;;5156476;27;20071;-78
2022/07/11 11:08:40;;;;;;;2.03;0.60;;;19.80;99.90;;;;;;5156764;27;20049;-79
2022/07/11 11:11:22;;;;;;;1.13;0.60;;;19.90;99.90;;;;;;5157087;27;20065;-79
2022/07/11 11:14:16;;;;;;;1.17;0.60;;;20.00;99.90;;;;;;5156539;27;20143;-79
2022/07/11 11:16:42;;;;;;;1.35;0.60;;;20.20;99.90;;;;;;5156528;27;20482;-79
2022/07/11 11:19:46;;;;;;;0.70;0.57;;;20.50;99.90;;;;;;5156419;27;20049;-79
2022/07/11 11:22:16;;;;;;;1.17;0.50;;;20.70;99.90;;;;;;5138023;27;20054;-79
2022/07/11 11:24:43;;;;;;;0.95;0.60;;;21.00;99.90;;;;;;5156341;27;20504;-79
2022/07/11 11:27:18;;;;;;;1.50;0.70;;;20.80;99.90;;;;;;5156279;27;20095;-79
2022/07/11 11:29:44;;;;;;;1.33;0.60;;;21.00;99.90;;;;;;5138295;27;20042;-79
2022/07/11 11:32:09;;;;;;;0.90;0.50;;;21.40;99.90;;;;;;5156578;27;20103;-79
2022/07/11 11:34:36;;;;;;;1.27;0.50;;;21.20;99.90;;;;;;5156481;27;20082;-79
2022/07/11 11:37:01;;;;;;;2.88;0.60;;;21.10;99.90;;;;;;5156099;27;20168;-79
2022/07/11 11:39:30;;;;;;;2.20;0.50;;;21.40;99.90;;;;;;5156005;27;20117;-79
2022/07/11 11:42:04;;;;;;;0.68;0.40;;;21.40;99.90;;;;;;5155921;27;20127;-79
2022/07/11 11:44:31;;;;;;;0.88;0.50;;;21.70;99.90;;;;;;5155975;27;20427;-80
2022/07/11 11:46:56;;;;;;;0.43;0.43;;;21.50;99.90;;;;;;5155858;27;20129;-80
2022/07/11 11:49:22;;;;;;;0.77;0.50;;;21.80;99.90;;;;;;5155819;27;20157;-79
2022/07/11 11:51:48;;;;;;;0.80;0.50;;;22.10;99.90;;;;;;5155948;27;20464;-80
2022/07/11 11:54:23;;;;;;;0.70;0.47;;;21.70;99.90;;;;;;5155776;27;20047;-79
2022/07/11 11:56:48;;;;;;;1.58;0.52;;;21.20;99.90;;;;;;5155697;27;20078;-79
2022/07/11 11:59:15;;;;;;;1.07;0.50;;;21.00;99.90;;;;;;5155723;27;20078;-79
2022/07/11 12:01:42;;;;;;;;;;;21.10;99.90;;;;;;5156463;27;20039;-79
2022/07/11 12:04:10;;;;;;;1.52;0.50;;;21.20;99.90;;;;;;5155622;27;19919;-79
2022/07/11 12:06:40;;;;;;;0.70;0.47;;;21.40;99.90;;;;;;5137610;27;20478;-79
2022/07/11 12:09:11;;;;;;;0.60;0.47;;;21.50;99.90;;;;;;5155308;27;20038;-79
2022/07/11 12:11:45;;;;;;;1.75;0.52;;;21.30;99.90;;;;;;5155555;27;20053;-78
2022/07/11 12:14:12;;;;;;;0.60;0.50;;;21.20;99.90;;;;;;5155882;27;20565;-78
2022/07/11 12:16:43;;;;;;;2.25;0.65;;;20.90;99.90;;;;;;5155345;27;20134;-80
2022/07/11 12:19:21;;;;;;;3.08;0.50;;;21.30;99.90;;;;;;5155349;27;20443;-79
2022/07/11 12:21:55;;;;;;;0.70;0.55;;;21.40;99.90;;;;;;5155383;27;20050;-79
2022/07/11 12:24:24;;;;;;;0.40;0.40;;;21.50;99.90;;;;;;5155468;27;20046;-79
2022/07/11 12:26:50;;;;;;;0.55;0.40;;;21.60;99.90;;;;;;5155361;27;20087;-79
2022/07/11 12:29:19;;;;;;;1.75;0.50;;;21.90;99.90;;;;;;5155515;27;20042;-79
2022/07/11 12:32:00;;;;;;;0.63;0.40;;;21.20;99.90;;;;;;5155489;27;20078;-79
2022/07/11 12:34:43;;;;;;;0.82;0.43;;;21.20;99.90;;;;;;5155014;27;20046;-79
2022/07/11 12:37:10;;;;;;;1.05;0.52;;;22.10;99.90;;;;;;5155634;27;20372;-79
2022/07/11 12:39:38;;;;;;;0.40;0.40;;;21.90;99.90;;;;;;5155279;27;20042;-79
2022/07/11 12:42:28;;;;;;;0.40;0.40;;;21.70;99.90;;;;;;5155394;27;20385;-78
2022/07/11 12:44:59;;;;;;;0.63;0.40;;;21.80;99.90;;;;;;5155708;27;20038;-79
2022/07/11 12:47:27;;;;;;;1.33;0.50;;;21.70;99.90;;;;;;5155559;27;20519;-80
2022/07/11 12:49:54;;;;;;;1.33;0.50;;;22.50;99.90;;;;;;5155458;27;20042;-80
2022/07/11 12:52:19;;;;;;;1.67;0.50;;;21.70;99.90;;;;;;5155479;27;20042;-80
2022/07/11 12:54:45;;;;;;;0.70;0.40;;;21.60;99.90;;;;;;5155114;27;20363;-78
2022/07/11 12:57:20;;;;;;;0.50;0.40;;;21.50;99.90;;;;;;5155092;27;20439;-78
2022/07/11 12:59:46;;;;;;;2.28;0.57;;;21.70;99.90;;;;;;5155126;27;20054;-79
2022/07/11 13:02:13;;;;;;;1.00;0.40;;;21.70;99.90;;;;;;5155067;27;20478;-79